Time;durP1;ratioP1;P1;durP2;ratioP2;P2;SDS_P1;SDS_P2;PMS_P1;PMS_P2;Temp;Humidity;BMP_temperature;BMP_pressure;BME280_temperature;BME280_humidity;BME280_pressure;Samples;Min_cycle;Max_cycle;Signal;HPM_P1;HPM_P2
2022/08/15 00:00:27;;;;;;;6.07;1.90;;;;;;;18.68;100.00;100086.16;5048869;28;20064;-83
2022/08/15 00:02:57;;;;;;;7.80;2.38;;;;;;;18.45;100.00;100080.97;5040325;28;20059;-83
2022/08/15 00:05:30;;;;;;;10.20;2.55;;;;;;;18.45;100.00;100080.97;5050591;28;20037;-83
2022/08/15 00:08:03;;;;;;;8.48;2.40;;;;;;;18.53;100.00;100075.84;5051191;28;20045;-83
2022/08/15 00:10:50;;;;;;;7.97;2.83;;;;;;;18.52;100.00;100079.50;5054456;28;20045;-83
2022/08/15 00:13:31;;;;;;;10.70;2.70;;;;;;;18.52;100.00;100081.28;5054849;28;20466;-83
2022/08/15 00:16:08;;;;;;;7.47;2.55;;;;;;;18.54;100.00;100082.03;5054104;28;20053;-83
2022/08/15 00:18:36;;;;;;;7.00;2.13;;;;;;;18.37;100.00;100081.56;5054185;28;20045;-82
2022/08/15 00:21:04;;;;;;;6.40;2.33;;;;;;;18.15;100.00;100086.88;5054420;28;20048;-82
2022/08/15 00:23:40;;;;;;;8.10;2.72;;;;;;;18.16;100.00;100088.59;5054740;28;20411;-83
2022/08/15 00:26:11;;;;;;;6.35;2.42;;;;;;;18.14;100.00;100088.72;5040181;28;20049;-82
2022/08/15 00:28:58;;;;;;;6.93;2.13;;;;;;;17.93;100.00;100093.88;5054145;28;20053;-82
2022/08/15 00:31:24;;;;;;;5.60;2.03;;;;;;;18.04;100.00;100093.03;5054224;28;20055;-82
2022/08/15 00:34:09;;;;;;;8.70;2.38;;;;;;;18.04;100.00;100095.69;5045318;28;20100;-82
2022/08/15 00:36:57;;;;;;;10.15;4.35;;;;;;;17.88;100.00;100074.03;5054093;28;20463;-83
2022/08/15 00:39:25;;;;;;;9.77;5.18;;;;;;;17.78;100.00;100085.31;5055324;28;20135;-83
2022/08/15 00:42:02;;;;;;;11.15;5.70;;;;;;;17.79;100.00;100091.47;5054311;28;20056;-83
2022/08/15 00:44:40;;;;;;;9.75;5.47;;;;;;;18.03;100.00;100086.91;5052695;28;20067;-83
2022/08/15 00:47:22;;;;;;;10.63;5.57;;;;;;;18.11;100.00;100088.94;5040970;28;20093;-83
2022/08/15 00:49:49;;;;;;;9.50;4.32;;;;;;;18.15;100.00;100087.75;5053894;28;20487;-82
2022/08/15 00:52:30;;;;;;;9.07;3.13;;;;;;;18.29;100.00;100097.25;5055432;28;20048;-83
2022/08/15 00:55:13;;;;;;;8.85;2.75;;;;;;;18.15;100.00;100085.09;5053569;28;20133;-82
2022/08/15 00:57:44;;;;;;;6.97;2.67;;;;;;;18.13;100.00;100038.50;5054048;28;20111;-82
2022/08/15 01:00:34;;;;;;;9.25;2.70;;;;;;;18.27;100.00;100051.47;5054460;28;20083;-82
2022/08/15 01:03:14;;;;;;;7.28;2.42;;;;;;;18.36;100.00;100060.47;5045361;28;20059;-82
2022/08/15 01:05:49;;;;;;;5.38;1.90;;;;;;;18.20;100.00;100037.03;5054689;28;20051;-83
2022/08/15 01:08:23;;;;;;;4.97;2.00;;;;;;;18.54;100.00;100043.09;5053496;28;20103;-83
2022/08/15 01:11:06;;;;;;;6.88;2.45;;;;;;;18.48;100.00;100054.19;5053858;28;20044;-82
2022/08/15 01:13:35;;;;;;;6.57;2.40;;;;;;;18.29;100.00;100038.09;5047787;28;20059;-83
2022/08/15 01:16:24;;;;;;;8.10;2.60;;;;;;;18.15;100.00;100013.56;5040761;28;20289;-83
2022/08/15 01:19:04;;;;;;;8.43;2.45;;;;;;;18.21;100.00;100038.72;5041306;28;20045;-82
2022/08/15 01:22:00;;;;;;;9.75;2.25;;;;;;;18.36;100.00;100047.22;5053234;28;20056;-83
2022/08/15 01:24:33;;;;;;;6.40;2.25;;;;;;;18.36;100.00;100036.63;5052004;28;20048;-83
2022/08/15 01:27:23;;;;;;;6.80;2.17;;;;;;;18.31;100.00;100012.31;5044189;28;20045;-83
2022/08/15 01:30:01;;;;;;;8.77;2.15;;;;;;;18.27;100.00;100024.13;5054258;28;20136;-82
2022/08/15 01:32:30;;;;;;;6.35;2.15;;;;;;;18.33;100.00;100002.44;5052404;28;20050;-83
2022/08/15 01:35:03;;;;;;;6.25;1.92;;;;;;;18.43;100.00;100019.25;5052979;28;20041;-83
2022/08/15 01:37:32;;;;;;;5.40;1.90;;;;;;;18.46;100.00;100021.66;5053312;28;20471;-82
2022/08/15 01:40:43;;;;;;;5.80;1.90;;;;;;;18.54;100.00;100016.59;5052958;28;20445;-83
2022/08/15 01:43:27;;;;;;;3.88;1.45;;;;;;;18.54;100.00;100016.59;5051015;28;20053;-83
2022/08/15 01:45:56;;;;;;;6.88;2.38;;;;;;;18.55;100.00;100020.91;5052710;28;20411;-83
2022/08/15 01:48:32;;;;;;;5.68;2.10;;;;;;;18.43;100.00;100013.94;5042289;28;20050;-83
2022/08/15 01:51:06;;;;;;;5.65;1.73;;;;;;;18.46;100.00;100008.41;5052792;28;20117;-82
2022/08/15 01:53:43;;;;;;;7.72;1.80;;;;;;;18.70;100.00;100012.66;5053595;28;20055;-82
2022/08/15 01:56:33;;;;;;;5.10;1.70;;;;;;;18.89;100.00;100031.41;5052694;28;20045;-83
2022/08/15 01:59:05;;;;;;;5.63;1.70;;;;;;;18.76;100.00;100041.31;5052373;28;20051;-83
2022/08/15 02:01:39;;;;;;;5.25;1.80;;;;;;;18.80;100.00;100042.72;5052487;28;20476;-82
2022/08/15 02:04:09;;;;;;;7.78;1.98;;;;;;;18.70;100.00;100047.13;5051652;28;20080;-83
2022/08/15 02:06:52;;;;;;;5.75;1.73;;;;;;;18.75;100.00;100052.88;5053034;28;20057;-83
2022/08/15 02:09:23;;;;;;;6.22;1.98;;;;;;;18.66;100.00;100053.66;5053907;28;20536;-83
2022/08/15 02:12:12;;;;;;;5.38;1.77;;;;;;;19.03;100.00;100070.03;5052393;28;20049;-83
2022/08/15 02:15:00;;;;;;;5.85;1.80;;;;;;;18.96;100.00;100053.81;5045756;28;20512;-83
2022/08/15 02:17:27;;;;;;;3.60;1.45;;;;;;;19.11;100.00;100067.56;5052350;28;20478;-83
2022/08/15 02:19:59;;;;;;;4.85;1.83;;;;;;;19.00;100.00;100069.44;5053179;28;20057;-82
2022/08/15 02:22:27;;;;;;;4.47;1.40;;;;;;;19.04;100.00;100086.81;5051192;28;20052;-83
2022/08/15 02:24:56;;;;;;;6.10;1.90;;;;;;;18.89;100.00;100076.50;5033602;28;20383;-83
2022/08/15 02:27:31;;;;;;;6.13;2.50;;;;;;;18.45;100.00;100067.72;5043149;28;20052;-83
2022/08/15 02:30:07;;;;;;;8.02;2.45;;;;;;;18.73;100.00;100076.91;5038562;28;20045;-83
2022/08/15 02:32:36;;;;;;;7.07;2.80;;;;;;;18.91;100.00;100073.69;5052086;28;20060;-82
2022/08/15 02:35:05;;;;;;;6.90;2.60;;;;;;;18.86;100.00;100067.97;5051965;28;20071;-83
2022/08/15 02:37:32;;;;;;;6.75;2.08;;;;;;;18.90;100.00;100056.94;5051800;28;20056;-83
2022/08/15 02:40:08;;;;;;;7.85;2.20;;;;;;;18.88;100.00;100045.63;5051787;28;20076;-82
2022/08/15 02:43:00;;;;;;;6.18;2.13;;;;;;;18.90;100.00;100033.06;5052563;28;20049;-82
2022/08/15 02:45:28;;;;;;;5.78;2.20;;;;;;;18.92;100.00;100028.47;5043621;28;20045;-83
2022/08/15 02:47:55;;;;;;;6.68;1.95;;;;;;;18.98;100.00;100029.78;5051663;28;20049;-83
2022/08/15 02:50:22;;;;;;;5.38;1.90;;;;;;;18.94;100.00;100013.28;5051531;28;20045;-83
2022/08/15 02:52:49;;;;;;;7.07;2.10;;;;;;;18.77;100.00;100009.38;5041400;28;20419;-83
2022/08/15 02:55:20;;;;;;;6.82;2.38;;;;;;;18.82;100.00;100006.34;5048401;28;20053;-83
2022/08/15 02:57:47;;;;;;;6.25;1.90;;;;;;;18.82;100.00;99989.59;5051085;28;20053;-83
2022/08/15 03:00:29;;;;;;;5.20;2.10;;;;;;;18.95;100.00;99987.59;5050724;28;20045;-83
2022/08/15 03:03:02;;;;;;;5.28;1.92;;;;;;;18.86;100.00;99977.78;5051981;28;20504;-82
2022/08/15 03:05:31;;;;;;;5.88;2.10;;;;;;;18.87;100.00;99974.97;5051331;28;20049;-82
2022/08/15 03:07:58;;;;;;;5.63;1.90;;;;;;;18.86;100.00;99977.78;5051281;28;20059;-82
2022/08/15 03:10:26;;;;;;;5.05;1.88;;;;;;;18.89;100.00;99974.84;5051402;28;20103;-83
2022/08/15 03:13:04;;;;;;;5.20;1.90;;;;;;;18.78;100.00;99950.03;5052579;28;20384;-83
2022/08/15 03:15:44;;;;;;;6.78;2.17;;;;;;;18.92;100.00;99953.38;5046397;28;20049;-83
2022/08/15 03:18:26;;;;;;;9.40;2.10;;;;;;;18.59;100.00;99955.22;5051347;28;20055;-83
2022/08/15 03:21:04;;;;;;;7.32;2.33;;;;;;;18.53;100.00;99947.78;5049360;28;20073;-83
2022/08/15 03:23:32;;;;;;;5.40;2.03;;;;;;;18.35;100.00;99943.03;5042734;28;20136;-83
2022/08/15 03:26:10;;;;;;;6.32;2.10;;;;;;;18.14;100.00;99939.53;5037404;28;20391;-83
2022/08/15 03:28:53;;;;;;;5.38;1.98;;;;;;;18.25;100.00;99939.47;5051327;28;20463;-82
2022/08/15 03:31:31;;;;;;;7.38;2.00;;;;;;;18.34;100.00;99935.22;5050386;28;20061;-83
2022/08/15 03:34:12;;;;;;;5.30;1.88;;;;;;;18.34;100.00;99912.22;5052038;28;20053;-83
2022/08/15 03:36:45;;;;;;;5.55;1.92;;;;;;;18.15;100.00;99867.00;5047609;28;20453;-83
2022/08/15 03:39:19;;;;;;;8.30;2.33;;;;;;;18.07;100.00;99867.66;5050536;28;20045;-84
2022/08/15 03:41:47;;;;;;;7.75;2.55;;;;;;;17.68;100.00;99859.34;5050122;28;20053;-84
2022/08/15 03:44:23;;;;;;;9.80;2.40;;;;;;;17.81;100.00;99907.69;5055030;28;20056;-84
2022/08/15 03:46:56;;;;;;;7.47;2.08;;;;;;;17.84;100.00;99896.81;5054209;28;20049;-84
2022/08/15 03:49:24;;;;;;;9.63;2.90;;;;;;;17.58;100.00;99853.09;5041355;28;20053;-84
2022/08/15 03:52:10;;;;;;;6.72;2.22;;;;;;;17.51;100.00;99836.91;5045611;28;20053;-84
2022/08/15 03:54:37;;;;;;;6.22;2.58;;;;;;;17.24;100.00;99824.06;5054917;28;20553;-84
2022/08/15 03:57:07;;;;;;;7.78;3.30;;;;;;;17.19;100.00;99827.09;5043661;28;20045;-84
2022/08/15 03:59:34;;;;;;;9.52;2.80;;;;;;;17.31;100.00;99853.53;5048654;28;20045;-83
2022/08/15 04:02:10;;;;;;;7.25;2.63;;;;;;;17.27;100.00;99867.00;5046847;28;20056;-84
2022/08/15 04:04:56;;;;;;;6.93;2.35;;;;;;;17.28;100.00;99878.41;5042993;28;20127;-84
2022/08/15 04:07:25;;;;;;;6.55;2.45;;;;;;;17.15;100.00;99878.53;5053817;28;20136;-84
2022/08/15 04:10:10;;;;;;;7.65;2.35;;;;;;;17.40;100.00;99888.00;5055899;28;20495;-83
2022/08/15 04:12:57;;;;;;;6.50;2.30;;;;;;;17.55;100.00;99885.97;5054148;28;20049;-84
2022/08/15 04:15:27;;;;;;;7.28;2.42;;;;;;;17.46;100.00;99892.00;5055662;28;20045;-84
2022/08/15 04:17:57;;;;;;;5.88;2.08;;;;;;;17.51;100.00;99889.81;5054360;28;20126;-85
2022/08/15 04:20:28;;;;;;;6.65;2.47;;;;;;;17.59;100.00;99911.22;5054427;28;20059;-84
2022/08/15 04:22:58;;;;;;;8.50;3.55;;;;;;;17.41;100.00;99897.66;5049437;28;20055;-85
2022/08/15 04:25:35;;;;;;;6.38;2.33;;;;;;;17.58;100.00;99908.69;5035853;28;20411;-85
2022/08/15 04:28:11;;;;;;;5.47;1.80;;;;;;;17.50;100.00;99927.00;5048365;28;20143;-85
2022/08/15 04:31:01;;;;;;;5.90;2.33;;;;;;;17.41;100.00;99933.84;5044721;28;20514;-85
2022/08/15 04:33:31;;;;;;;7.47;2.30;;;;;;;17.56;100.00;99952.97;5052881;28;20053;-84
2022/08/15 04:36:20;;;;;;;5.70;2.03;;;;;;;17.61;100.00;99966.69;5049690;28;20546;-84
2022/08/15 04:38:57;;;;;;;7.57;2.13;;;;;;;17.48;100.00;99964.16;5041389;28;20044;-85
2022/08/15 04:41:30;;;;;;;10.48;2.25;;;;;;;17.57;100.00;99967.88;5050115;28;20480;-85
2022/08/15 04:44:05;;;;;;;5.93;2.10;;;;;;;17.56;100.00;99963.56;5041515;28;20135;-84
2022/08/15 04:46:32;;;;;;;7.22;2.00;;;;;;;17.59;100.00;99980.03;5047157;28;20084;-84
2022/08/15 04:48:59;;;;;;;10.65;2.22;;;;;;;17.68;100.00;99988.22;5053674;28;20098;-84
2022/08/15 04:51:27;;;;;;;6.45;2.47;;;;;;;17.45;100.00;99981.09;5048535;28;20085;-84
2022/08/15 04:54:02;;;;;;;6.85;2.40;;;;;;;17.53;100.00;99982.31;5053114;28;20044;-84
2022/08/15 04:56:30;;;;;;;5.15;1.80;;;;;;;17.75;100.00;99970.88;5051950;28;20058;-84
2022/08/15 04:59:17;;;;;;;7.10;2.80;;;;;;;17.73;100.00;99957.75;5039748;28;20052;-84
2022/08/15 05:02:07;;;;;;;7.35;2.40;;;;;;;17.59;100.00;99927.09;5044466;28;20140;-84
2022/08/15 05:04:53;;;;;;;6.43;1.95;;;;;;;17.65;100.00;99928.41;5054464;28;20056;-84
2022/08/15 05:07:21;;;;;;;7.88;2.63;;;;;;;17.74;100.00;99940.06;5042280;28;20488;-84
2022/08/15 05:09:57;;;;;;;10.80;2.60;;;;;;;17.64;100.00;99913.50;5053693;28;20048;-84
2022/08/15 05:12:36;;;;;;;6.43;2.65;;;;;;;17.54;100.00;99888.72;5052600;28;20094;-84
2022/08/15 05:15:05;;;;;;;6.72;2.50;;;;;;;17.54;100.00;99888.72;5053464;28;20047;-84
2022/08/15 05:17:32;;;;;;;8.80;2.67;;;;;;;17.37;100.00;99853.03;5054038;28;20506;-84
2022/08/15 05:20:21;;;;;;;6.78;2.40;;;;;;;17.65;100.00;99894.00;5054310;28;20045;-84
2022/08/15 05:23:00;;;;;;;9.30;2.28;;;;;;;17.74;100.00;99892.41;5052260;28;20053;-84
2022/08/15 05:25:30;;;;;;;9.20;2.67;;;;;;;17.78;100.00;99893.84;5052937;28;20056;-84
2022/08/15 05:27:58;;;;;;;6.18;2.20;;;;;;;17.82;100.00;99884.69;5052526;28;20084;-84
2022/08/15 05:30:25;;;;;;;6.38;2.30;;;;;;;17.68;100.00;99851.41;5052843;28;20060;-84
2022/08/15 05:33:06;;;;;;;9.73;3.53;;;;;;;17.59;100.00;99855.63;5051981;28;20866;-84
2022/08/15 05:35:41;;;;;;;8.48;3.67;;;;;;;17.56;100.00;99866.44;5052960;28;20489;-84
2022/08/15 05:38:16;;;;;;;8.05;2.60;;;;;;;17.56;100.00;99861.16;5052740;28;20053;-85
2022/08/15 05:41:17;;;;;;;8.35;2.40;;;;;;;17.62;100.00;99854.56;5051887;28;20053;-84
2022/08/15 05:44:01;;;;;;;8.23;2.47;;;;;;;17.72;100.00;99849.34;5041700;28;20045;-85
2022/08/15 05:46:44;;;;;;;7.38;2.70;;;;;;;17.70;100.00;99846.81;5052216;28;20479;-84
2022/08/15 05:49:40;;;;;;;9.00;3.38;;;;;;;17.73;100.00;99843.09;5039572;28;20059;-84
2022/08/15 05:53:03;;;;;;;13.10;3.67;;;;;;;17.76;100.00;99846.31;5052645;28;20349;-84
2022/08/15 05:55:31;;;;;;;8.10;2.97;;;;;;;17.95;100.00;99864.19;4969721;28;20473;-84
2022/08/15 05:58:09;;;;;;;7.90;2.55;;;;;;;17.99;100.00;99862.16;4963778;28;20053;-84
2022/08/15 06:01:09;;;;;;;7.80;3.03;;;;;;;17.99;100.00;99857.69;5027975;28;20384;-84
2022/08/15 06:03:46;;;;;;;6.00;2.22;;;;;;;17.92;100.00;99876.84;5046628;28;20098;-84
2022/08/15 06:06:21;;;;;;;10.73;3.92;;;;;;;17.71;100.00;99909.41;5047580;28;20045;-84
2022/08/15 06:09:06;;;;;;;8.95;3.22;;;;;;;17.51;100.00;99900.41;5046472;28;20053;-84
2022/08/15 06:11:40;;;;;;;6.57;2.05;;;;;;;17.80;100.00;99910.47;5035396;28;20400;-84
2022/08/15 06:14:42;;;;;;;9.55;2.53;;;;;;;17.92;100.00;99943.06;5050284;28;20183;-83
2022/08/15 06:17:19;;;;;;;8.60;3.67;;;;;;;17.77;100.00;99951.25;5040976;28;20103;-84
2022/08/15 06:19:52;;;;;;;8.65;2.67;;;;;;;17.62;100.00;99928.66;5039542;28;20055;-84
2022/08/15 06:22:28;;;;;;;7.38;2.88;;;;;;;17.63;100.00;99943.56;5052605;28;20053;-84
2022/08/15 06:24:58;;;;;;;11.52;4.18;;;;;;;17.83;100.00;99942.00;5040762;28;20049;-85
2022/08/15 06:27:47;;;;;;;7.22;2.80;;;;;;;17.95;100.00;99945.47;5052096;28;20081;-85
2022/08/15 06:30:25;;;;;;;7.93;2.78;;;;;;;17.81;100.00;99910.34;5052489;28;20403;-86
2022/08/15 06:33:06;;;;;;;8.35;2.70;;;;;;;17.57;100.00;99896.44;5051337;28;20134;-85
2022/08/15 06:36:04;;;;;;;7.68;3.10;;;;;;;17.45;100.00;99957.28;5053667;28;20053;-85
2022/08/15 06:39:08;;;;;;;10.05;4.25;;;;;;;17.26;100.00;99957.06;5042639;28;20123;-84
2022/08/15 06:41:58;;;;;;;9.13;3.10;;;;;;;17.42;100.00;99980.50;5047356;28;20057;-84
2022/08/15 06:44:26;;;;;;;11.82;4.13;;;;;;;17.63;100.00;99975.34;5053104;28;20048;-84
2022/08/15 06:47:07;;;;;;;8.65;3.28;;;;;;;17.72;100.00;99968.47;5040763;28;20080;-85
2022/08/15 06:49:43;;;;;;;7.53;2.70;;;;;;;17.65;100.00;99963.69;5053361;28;20059;-84
2022/08/15 06:52:12;;;;;;;7.70;2.97;;;;;;;17.57;100.00;99976.66;5044516;28;20391;-85
2022/08/15 06:54:44;;;;;;;8.75;2.58;;;;;;;17.43;100.00;99963.69;5052217;28;20120;-84
2022/08/15 06:57:27;;;;;;;10.02;2.88;;;;;;;17.58;100.00;99965.13;5052247;28;20040;-85
2022/08/15 07:00:00;;;;;;;9.32;3.75;;;;;;;17.81;100.00;99979.19;5051772;28;20076;-85
2022/08/15 07:02:42;;;;;;;9.85;3.55;;;;;;;17.65;100.00;99936.34;5038154;28;20471;-85
2022/08/15 07:05:31;;;;;;;10.07;3.60;;;;;;;17.80;100.00;99948.34;5051941;28;20533;-85
2022/08/15 07:08:19;;;;;;;12.13;4.28;;;;;;;17.78;100.00;99946.81;5051582;28;20052;-84
2022/08/15 07:11:15;;;;;;;8.02;2.90;;;;;;;17.78;100.00;99952.94;5037462;28;20051;-84
2022/08/15 07:14:07;;;;;;;8.30;2.85;;;;;;;17.77;100.00;99935.34;5044978;28;20049;-84
2022/08/15 07:17:00;;;;;;;5.80;2.15;;;;;;;17.77;100.00;99922.13;5043915;28;20152;-84
2022/08/15 07:19:27;;;;;;;6.03;2.67;;;;;;;17.98;100.00;99951.34;5053563;28;20081;-84
2022/08/15 07:22:02;;;;;;;8.95;3.05;;;;;;;17.66;100.00;99895.69;5056058;28;20052;-84
2022/08/15 07:24:33;;;;;;;6.28;2.17;;;;;;;17.98;100.00;99930.16;5055653;28;20049;-84
2022/08/15 07:27:16;;;;;;;8.40;2.95;;;;;;;17.82;100.00;99916.47;5055041;28;20076;-84
2022/08/15 07:29:54;;;;;;;6.03;2.42;;;;;;;18.23;100.00;99980.31;5055747;28;20375;-84
2022/08/15 07:32:41;;;;;;;7.78;3.03;;;;;;;18.14;100.00;99990.69;5042870;28;20436;-84
2022/08/15 07:35:12;;;;;;;11.13;3.17;;;;;;;18.00;100.00;99980.38;5042932;28;20057;-84
2022/08/15 07:37:49;;;;;;;8.75;3.45;;;;;;;17.86;100.00;99959.47;5053122;28;20658;-85
2022/08/15 07:40:24;;;;;;;8.60;3.50;;;;;;;18.13;100.00;99991.66;5043098;28;20080;-85
2022/08/15 07:42:57;;;;;;;9.15;2.75;;;;;;;18.07;100.00;99984.19;5044840;28;20091;-84
2022/08/15 07:45:28;;;;;;;8.82;3.47;;;;;;;18.14;100.00;99979.25;5055084;28;20073;-84
2022/08/15 07:48:25;;;;;;;7.38;2.75;;;;;;;18.27;100.00;99974.63;5045143;28;20514;-84
2022/08/15 07:51:16;;;;;;;10.70;3.95;;;;;;;18.08;100.00;99953.25;5054732;28;20131;-85
2022/08/15 07:53:52;;;;;;;8.77;3.45;;;;;;;17.78;100.00;99907.94;5055260;28;20053;-84
2022/08/15 07:56:22;;;;;;;9.50;3.35;;;;;;;17.96;100.00;99931.28;5051616;28;20061;-84
2022/08/15 07:59:20;;;;;;;8.57;3.05;;;;;;;18.13;100.00;99953.72;5055137;28;20049;-84
2022/08/15 08:02:00;;;;;;;9.93;3.70;;;;;;;18.14;100.00;99964.19;5047392;28;20107;-84
2022/08/15 08:04:33;;;;;;;8.32;3.80;;;;;;;17.75;100.00;99934.66;5042468;28;20106;-84
2022/08/15 08:07:16;;;;;;;9.38;3.35;;;;;;;17.86;100.00;99955.00;5054787;28;20414;-84
2022/08/15 08:10:17;;;;;;;10.50;3.60;;;;;;;18.25;100.00;99983.69;5046514;28;20044;-84
2022/08/15 08:13:06;;;;;;;7.78;3.20;;;;;;;18.23;100.00;99948.53;5050790;28;20049;-84
2022/08/15 08:16:16;;;;;;;9.93;4.10;;;;;;;18.05;100.00;99956.16;5050523;28;20049;-84
2022/08/15 08:19:32;;;;;;;10.05;3.72;;;;;;;17.99;100.00;99934.50;5049046;28;20049;-84
2022/08/15 08:22:18;;;;;;;10.57;4.28;;;;;;;18.09;100.00;99928.47;5045678;28;20071;-84
2022/08/15 08:24:54;;;;;;;8.40;3.80;;;;;;;17.93;100.00;99905.88;5040835;28;20380;-84
2022/08/15 08:27:36;;;;;;;7.65;2.90;;;;;;;18.32;100.00;99937.97;5044692;28;20132;-84
2022/08/15 08:30:26;;;;;;;8.02;2.90;;;;;;;18.14;100.00;99892.66;5038142;28;20053;-84
2022/08/15 08:33:22;;;;;;;7.72;3.30;;;;;;;18.36;100.00;99923.53;5053605;28;20135;-84
2022/08/15 08:35:59;;;;;;;8.35;4.35;;;;;;;18.42;100.00;99926.66;5053154;28;20495;-84
2022/08/15 08:38:55;;;;;;;8.75;4.13;;;;;;;18.21;100.00;99903.59;5036288;28;20121;-83
2022/08/15 08:41:46;;;;;;;10.90;4.97;;;;;;;18.31;100.00;99906.31;5052428;28;20098;-84
2022/08/15 08:44:14;;;;;;;10.30;4.55;;;;;;;18.59;100.00;99934.00;5046952;28;20064;-84
2022/08/15 08:47:02;;;;;;;8.27;3.13;;;;;;;18.66;100.00;99929.91;5044600;28;20130;-84
2022/08/15 08:49:58;;;;;;;10.20;3.50;;;;;;;18.69;100.00;99928.78;5055159;28;20056;-84
2022/08/15 08:52:45;;;;;;;7.80;2.53;;;;;;;18.84;100.00;99937.25;5028967;28;20068;-85
2022/08/15 08:55:23;;;;;;;8.10;3.50;;;;;;;18.89;100.00;99945.69;5055101;28;20045;-84
2022/08/15 08:58:18;;;;;;;7.70;3.33;;;;;;;18.51;100.00;99907.31;5044876;28;20053;-84
2022/08/15 09:01:07;;;;;;;7.13;2.97;;;;;;;18.97;100.00;99951.19;5040463;28;20048;-84
2022/08/15 09:03:51;;;;;;;7.88;3.25;;;;;;;18.90;100.00;99956.16;5054669;28;20045;-84
2022/08/15 09:06:24;;;;;;;9.93;2.70;;;;;;;18.82;100.00;99945.34;5042172;28;20056;-84
2022/08/15 09:09:26;;;;;;;7.05;3.08;;;;;;;18.85;100.00;99949.56;5054939;28;20482;-84
2022/08/15 09:12:02;;;;;;;7.15;2.55;;;;;;;18.74;100.00;99916.81;5049179;28;20045;-84
2022/08/15 09:14:40;;;;;;;10.30;4.63;;;;;;;18.70;100.00;99927.81;5054694;28;20041;-85
2022/08/15 09:17:33;;;;;;;7.25;2.95;;;;;;;18.54;100.00;99886.69;5041789;28;20403;-84
2022/08/15 09:20:12;;;;;;;8.50;3.85;;;;;;;18.79;100.00;99943.78;5055212;28;20049;-84
2022/08/15 09:22:47;;;;;;;7.65;2.90;;;;;;;18.56;100.00;99916.56;5037853;28;20475;-85
2022/08/15 09:25:15;;;;;;;7.25;3.10;;;;;;;18.63;100.00;99929.28;5053558;28;20053;-85
2022/08/15 09:27:44;;;;;;;7.57;3.10;;;;;;;18.77;100.00;99956.34;5052970;28;20055;-84
2022/08/15 09:30:24;;;;;;;7.43;3.15;;;;;;;18.88;100.00;99962.56;5053471;28;20049;-84
2022/08/15 09:33:23;;;;;;;7.15;2.60;;;;;;;18.98;100.00;99968.75;5052381;28;20056;-85
2022/08/15 09:36:28;;;;;;;8.85;3.30;;;;;;;18.96;100.00;99963.59;5053926;28;20045;-84
2022/08/15 09:39:01;;;;;;;8.35;3.42;;;;;;;19.01;100.00;99973.81;5044860;28;20053;-85
2022/08/15 09:41:43;;;;;;;8.88;3.15;;;;;;;18.93;100.00;99952.41;5049535;28;20055;-84
2022/08/15 09:44:51;;;;;;;7.53;2.47;;;;;;;19.04;100.00;99952.34;5053662;28;20194;-84
2022/08/15 09:47:40;;;;;;;8.30;3.83;;;;;;;19.06;100.00;99958.34;5046911;28;20045;-85
2022/08/15 09:50:57;;;;;;;8.70;3.97;;;;;;;18.49;100.00;99907.44;5050927;28;20053;-84
2022/08/15 09:53:36;;;;;;;8.15;3.30;;;;;;;18.71;100.00;99948.88;5056573;28;20055;-85
2022/08/15 09:56:25;;;;;;;10.10;3.92;;;;;;;18.36;100.00;99904.13;5049613;28;20057;-84
2022/08/15 09:59:05;;;;;;;9.13;4.03;;;;;;;18.69;100.00;99940.22;5038572;28;20056;-84
2022/08/15 10:01:44;;;;;;;7.88;3.60;;;;;;;18.60;100.00;99938.34;5052924;28;20482;-84
2022/08/15 10:05:01;;;;;;;10.45;3.17;;;;;;;19.01;100.00;99978.28;5047510;28;20045;-84
2022/08/15 10:07:31;;;;;;;7.63;2.78;;;;;;;19.02;100.00;99978.16;5036448;28;20046;-84
2022/08/15 10:10:01;;;;;;;7.70;3.08;;;;;;;18.99;100.00;99972.28;5032747;28;20128;-84
2022/08/15 10:12:37;;;;;;;7.40;3.03;;;;;;;18.76;100.00;99943.19;5035383;28;20557;-84
2022/08/15 10:15:33;;;;;;;8.90;3.13;;;;;;;18.99;100.00;99951.06;5053977;28;20044;-84
2022/08/15 10:18:08;;;;;;;8.15;3.22;;;;;;;19.05;100.00;99945.22;5051561;28;20045;-84
2022/08/15 10:20:40;;;;;;;6.93;2.92;;;;;;;19.37;100.00;99978.75;5052266;28;20044;-84
2022/08/15 10:23:13;;;;;;;7.95;3.20;;;;;;;19.44;100.00;99959.50;5052095;28;20045;-83
2022/08/15 10:25:48;;;;;;;7.65;2.92;;;;;;;19.30;100.00;99926.22;5039218;28;20053;-84
2022/08/15 10:28:20;;;;;;;8.80;3.65;;;;;;;19.53;100.00;99957.88;5039201;28;20470;-84
2022/08/15 10:31:05;;;;;;;5.63;2.15;;;;;;;19.68;100.00;99953.84;5053157;28;20045;-84
2022/08/15 10:33:33;;;;;;;6.32;2.35;;;;;;;19.89;100.00;99951.13;5045723;28;20049;-83
2022/08/15 10:36:13;;;;;;;8.18;2.53;;;;;;;19.97;100.00;99957.56;5033979;28;20136;-83
2022/08/15 10:39:13;;;;;;;7.13;3.08;;;;;;;20.14;100.00;99959.56;5053201;28;20049;-83
2022/08/15 10:42:26;;;;;;;8.05;3.15;;;;;;;20.14;100.00;99954.25;5052480;28;20087;-83
2022/08/15 10:44:57;;;;;;;7.32;2.65;;;;;;;20.19;100.00;99946.72;5052199;28;20045;-82
2022/08/15 10:47:54;;;;;;;8.68;3.10;;;;;;;19.91;100.00;99945.69;5051791;28;20045;-82
2022/08/15 10:50:52;;;;;;;7.38;2.80;;;;;;;20.15;100.00;99934.69;5053088;28;20049;-82
2022/08/15 10:53:50;;;;;;;7.05;2.88;;;;;;;20.35;100.00;99929.38;5046293;28;20402;-82
2022/08/15 10:56:22;;;;;;;8.85;3.70;;;;;;;20.27;100.00;99925.59;5041282;28;20045;-82
2022/08/15 10:59:18;;;;;;;9.50;3.17;;;;;;;20.00;100.00;99886.41;5051710;28;20072;-82
2022/08/15 11:01:51;;;;;;;7.40;2.97;;;;;;;19.94;100.00;99883.47;5040563;28;20064;-82
2022/08/15 11:04:34;;;;;;;8.63;3.67;;;;;;;20.29;100.00;99923.63;5052097;28;20049;-83
2022/08/15 11:07:33;;;;;;;8.23;3.35;;;;;;;20.26;100.00;99913.28;5041698;28;20055;-82
2022/08/15 11:10:11;;;;;;;7.72;3.17;;;;;;;20.32;100.00;99917.19;5052688;28;20052;-82
2022/08/15 11:12:54;;;;;;;8.13;2.97;;;;;;;20.45;100.00;99890.28;5051109;28;20045;-83
2022/08/15 11:15:23;;;;;;;6.85;2.60;;;;;;;20.62;100.00;99905.56;5052674;28;20517;-83
2022/08/15 11:18:08;;;;;;;7.90;3.22;;;;;;;20.76;100.00;99919.41;5052563;28;20464;-82
2022/08/15 11:20:52;;;;;;;7.82;2.35;;;;;;;20.56;100.00;99922.06;5031979;28;20129;-82
2022/08/15 11:23:32;;;;;;;7.60;3.08;;;;;;;20.74;100.00;99914.22;5051223;28;20091;-82
2022/08/15 11:26:00;;;;;;;12.52;5.40;;;;;;;20.66;100.00;99900.78;5034468;28;20571;-83
2022/08/15 11:28:30;;;;;;;11.30;5.00;;;;;;;20.28;100.00;99886.56;5040772;28;20132;-82
2022/08/15 11:31:19;;;;;;;14.23;6.45;;;;;;;20.25;100.00;99868.22;5052829;28;20502;-82
2022/08/15 11:33:49;;;;;;;14.07;7.97;;;;;;;20.42;100.00;99914.53;5052008;28;20049;-82
2022/08/15 11:36:23;;;;;;;9.98;4.90;;;;;;;20.76;100.00;99928.22;5040324;28;20053;-82
2022/08/15 11:39:02;;;;;;;12.57;7.28;;;;;;;20.73;100.00;99925.00;5050938;28;20049;-82
2022/08/15 11:41:47;;;;;;;11.35;4.82;;;;;;;20.50;100.00;99917.31;5047638;28;20052;-83
2022/08/15 11:44:17;;;;;;;14.45;7.40;;;;;;;20.80;100.00;99928.78;5052382;28;20132;-82
2022/08/15 11:46:49;;;;;;;11.57;5.80;;;;;;;21.01;100.00;99934.72;5038365;28;20053;-82
2022/08/15 11:49:31;;;;;;;15.25;7.57;;;;;;;20.80;100.00;99942.06;5050897;28;20418;-82
2022/08/15 11:52:03;;;;;;;13.48;7.10;;;;;;;20.76;100.00;99941.53;5043693;28;20045;-82
2022/08/15 11:55:12;;;;;;;11.50;5.27;;;;;;;21.08;100.00;99950.13;5051028;28;20049;-82
2022/08/15 11:57:45;;;;;;;10.77;5.30;;;;;;;20.91;100.00;99946.38;5046827;28;20049;-82
2022/08/15 12:00:26;;;;;;;13.82;7.60;;;;;;;20.91;100.00;99955.22;5051325;28;20080;-82
2022/08/15 12:02:55;;;;;;;13.10;5.57;;;;;;;20.71;100.00;99933.13;5040550;28;20084;-82
2022/08/15 12:05:35;;;;;;;12.43;6.35;;;;;;;20.77;100.00;99945.00;5053474;28;20136;-82
2022/08/15 12:08:10;;;;;;;16.67;9.32;;;;;;;20.67;100.00;99940.56;5043947;28;20472;-82
2022/08/15 12:11:02;;;;;;;19.35;11.43;;;;;;;20.46;100.00;99945.16;5052253;28;20049;-82
2022/08/15 12:13:34;;;;;;;14.93;7.40;;;;;;;20.30;100.00;99929.78;5045902;28;20063;-82
2022/08/15 12:16:03;;;;;;;11.50;5.90;;;;;;;20.42;100.00;99933.16;5053436;28;20171;-82
2022/08/15 12:18:50;;;;;;;11.55;5.10;;;;;;;20.23;100.00;99940.13;5047217;28;20053;-82